createdAt,value
2023-03-08T00:01:22.900Z,64.38
2023-03-08T00:03:54.871Z,64.54
2023-03-08T00:06:22.783Z,64.50
2023-03-08T00:08:49.854Z,64.56
2023-03-08T00:11:17.974Z,64.64
2023-03-08T00:13:44.930Z,64.46
2023-03-08T00:16:14.081Z,64.19
2023-03-08T00:18:41.380Z,64.53
2023-03-08T00:21:13.344Z,64.71
2023-03-08T00:23:40.592Z,64.85
2023-03-08T00:26:08.335Z,64.82
2023-03-08T00:28:35.574Z,64.69
2023-03-08T00:31:08.313Z,64.83
2023-03-08T00:33:36.173Z,64.85
2023-03-08T00:36:11.750Z,64.76
2023-03-08T00:38:39.146Z,64.41
2023-03-08T00:41:06.412Z,64.67
2023-03-08T00:43:33.779Z,64.58
2023-03-08T00:46:04.220Z,64.16
2023-03-08T00:48:31.714Z,64.46
2023-03-08T00:50:58.790Z,64.38
2023-03-08T00:53:26.001Z,64.28
2023-03-08T00:55:55.512Z,64.87
2023-03-08T00:58:24.401Z,64.60
2023-03-08T01:00:52.065Z,64.48
2023-03-08T01:03:19.651Z,64.71
2023-03-08T01:05:51.843Z,64.76
2023-03-08T01:08:19.450Z,64.63
2023-03-08T01:10:49.822Z,64.44
2023-03-08T01:13:17.668Z,64.63
2023-03-08T01:15:44.988Z,64.33
2023-03-08T01:18:12.350Z,64.32
2023-03-08T01:20:39.515Z,64.31
2023-03-08T01:23:06.494Z,64.34
2023-03-08T01:25:33.601Z,64.21
2023-03-08T01:28:00.751Z,64.15
2023-03-08T01:30:28.721Z,64.46
2023-03-08T01:32:55.812Z,64.27
2023-03-08T01:35:22.906Z,64.17
2023-03-08T01:37:55.652Z,64.32
2023-03-08T01:40:23.285Z,64.10
2023-03-08T01:42:50.337Z,64.28
2023-03-08T01:45:54.953Z,64.38
2023-03-08T01:48:33.867Z,64.35
2023-03-08T01:51:06.952Z,64.31
2023-03-08T01:53:36.366Z,64.33
2023-03-08T01:56:03.606Z,64.06
2023-03-08T01:58:30.881Z,64.32
2023-03-08T02:00:58.168Z,64.05
2023-03-08T02:03:25.279Z,64.20
2023-03-08T02:05:52.599Z,63.92
2023-03-08T02:08:22.016Z,63.98
2023-03-08T02:10:50.898Z,64.02
2023-03-08T02:13:38.380Z,63.95
2023-03-08T02:16:11.366Z,64.26
2023-03-08T02:18:50.080Z,64.20
2023-03-08T02:21:17.634Z,63.97
2023-03-08T02:23:44.653Z,63.97
2023-03-08T02:26:11.724Z,64.35
2023-03-08T02:28:39.123Z,64.09
2023-03-08T02:31:06.597Z,64.51
2023-03-08T02:33:36.639Z,64.24
2023-03-08T02:36:05.797Z,64.32
2023-03-08T02:38:32.875Z,64.57
2023-03-08T02:41:00.479Z,64.45
2023-03-08T02:43:27.690Z,64.65
2023-03-08T02:45:54.682Z,64.32
2023-03-08T02:48:21.789Z,64.58
2023-03-08T02:50:48.903Z,64.40
2023-03-08T02:53:15.975Z,64.40
2023-03-08T02:55:44.745Z,64.93
2023-03-08T02:58:13.215Z,64.56
2023-03-08T03:00:40.513Z,64.68
2023-03-08T03:03:07.714Z,64.51
2023-03-08T03:05:34.719Z,64.38
2023-03-08T03:08:05.483Z,64.10
2023-03-08T03:10:32.513Z,64.16
2023-03-08T03:12:59.498Z,64.08
2023-03-08T03:15:29.983Z,64.29
2023-03-08T03:17:59.413Z,64.75
2023-03-08T03:20:26.676Z,64.52
2023-03-08T03:22:53.705Z,64.31
2023-03-08T03:25:26.370Z,64.69
2023-03-08T03:27:55.267Z,64.50
2023-03-08T03:30:23.199Z,64.79
2023-03-08T03:32:50.851Z,64.96
2023-03-08T03:35:23.742Z,64.44
2023-03-08T03:37:51.089Z,65.04
2023-03-08T03:40:18.573Z,64.61
2023-03-08T03:42:49.650Z,64.60
2023-03-08T03:45:16.808Z,64.36
2023-03-08T03:47:44.185Z,64.57
2023-03-08T03:50:11.969Z,64.53
2023-03-08T03:52:49.692Z,64.29
2023-03-08T03:55:16.949Z,65.17
2023-03-08T03:57:45.273Z,65.17
2023-03-08T04:00:16.544Z,66.39
2023-03-08T04:02:50.434Z,67.09
2023-03-08T04:05:19.560Z,68.14
2023-03-08T04:07:50.431Z,69.29
2023-03-08T04:10:18.951Z,67.52
2023-03-08T04:12:50.386Z,66.41
2023-03-08T04:15:19.296Z,66.88
2023-03-08T04:17:46.610Z,67.84
2023-03-08T04:20:14.673Z,67.80
2023-03-08T04:22:47.833Z,67.78
2023-03-08T04:25:21.508Z,68.06
2023-03-08T04:27:54.781Z,67.46
2023-03-08T04:30:22.421Z,67.29
2023-03-08T04:32:50.752Z,66.66
2023-03-08T04:35:19.295Z,66.91
2023-03-08T04:37:51.446Z,66.58
2023-03-08T04:40:20.825Z,67.38
2023-03-08T04:42:54.281Z,68.17
2023-03-08T04:45:26.270Z,68.35
2023-03-08T04:47:56.493Z,67.57
2023-03-08T04:50:24.053Z,67.58
2023-03-08T04:52:53.285Z,67.55
2023-03-08T04:55:20.915Z,68.93
2023-03-08T04:57:47.980Z,70.23
2023-03-08T05:00:15.478Z,69.39
2023-03-08T05:02:43.901Z,69.05
2023-03-08T05:05:16.416Z,69.10
2023-03-08T05:07:44.544Z,69.66
2023-03-08T05:10:12.204Z,68.76
2023-03-08T05:12:41.350Z,68.78
2023-03-08T05:15:09.915Z,69.27
2023-03-08T05:17:37.076Z,68.75
2023-03-08T05:20:05.933Z,69.09
2023-03-08T05:22:51.508Z,69.72
2023-03-08T05:25:24.569Z,68.84
2023-03-08T05:27:51.971Z,69.57
2023-03-08T05:30:21.608Z,68.40
2023-03-08T05:32:50.058Z,68.23
2023-03-08T05:35:17.280Z,67.84
2023-03-08T05:37:44.853Z,68.26
2023-03-08T05:40:12.869Z,68.30
2023-03-08T05:42:43.209Z,69.71
2023-03-08T05:45:11.531Z,69.30
2023-03-08T05:47:40.102Z,69.04
2023-03-08T05:50:10.384Z,69.41
2023-03-08T05:52:42.619Z,69.06
2023-03-08T05:55:13.513Z,68.96
2023-03-08T05:57:41.567Z,68.73
2023-03-08T06:00:09.340Z,68.81
2023-03-08T06:02:43.134Z,68.82
2023-03-08T06:05:12.949Z,68.10
2023-03-08T06:07:41.766Z,68.54
2023-03-08T06:10:11.479Z,68.80
2023-03-08T06:12:39.520Z,68.92
2023-03-08T06:15:09.957Z,68.73
2023-03-08T06:17:38.081Z,68.71
2023-03-08T06:20:06.931Z,68.83
2023-03-08T06:22:37.027Z,68.83
2023-03-08T06:25:04.668Z,68.28
2023-03-08T06:27:35.348Z,68.43
2023-03-08T06:30:07.991Z,68.61
2023-03-08T06:32:37.743Z,68.97
2023-03-08T06:35:06.636Z,67.92
2023-03-08T06:37:37.532Z,68.39
2023-03-08T06:40:09.277Z,67.89
2023-03-08T06:42:41.635Z,67.77
2023-03-08T06:45:12.603Z,67.20
2023-03-08T06:47:39.695Z,67.17
2023-03-08T06:50:07.871Z,67.16
2023-03-08T06:52:37.939Z,67.56
2023-03-08T06:55:07.381Z,67.72
2023-03-08T06:57:34.417Z,67.37
2023-03-08T07:00:01.774Z,67.29
2023-03-08T07:02:32.164Z,67.04
2023-03-08T07:04:59.198Z,67.29
2023-03-08T07:07:26.200Z,67.75
2023-03-08T07:09:53.392Z,67.86
2023-03-08T07:12:20.553Z,67.10
2023-03-08T07:14:47.620Z,66.81
2023-03-08T07:17:14.739Z,65.75
2023-03-08T07:19:41.724Z,66.27
2023-03-08T07:22:08.865Z,66.07
2023-03-08T07:24:35.885Z,66.51
2023-03-08T07:27:02.876Z,65.82
2023-03-08T07:29:30.002Z,65.45
2023-03-08T07:31:57.248Z,65.77
2023-03-08T07:34:24.277Z,66.07
2023-03-08T07:36:51.367Z,66.10
2023-03-08T07:39:18.423Z,65.97
2023-03-08T07:41:47.392Z,65.12
2023-03-08T07:44:14.622Z,65.33
2023-03-08T07:46:41.943Z,65.13
2023-03-08T07:49:10.802Z,64.34
2023-03-08T07:51:38.188Z,63.33
2023-03-08T07:54:05.418Z,63.64
2023-03-08T07:56:32.415Z,63.07
2023-03-08T07:58:59.409Z,64.16
2023-03-08T08:01:26.578Z,62.49
2023-03-08T08:03:53.588Z,62.27
2023-03-08T08:06:20.732Z,61.16
2023-03-08T08:08:47.720Z,61.08
2023-03-08T08:11:17.427Z,61.53
2023-03-08T08:13:44.732Z,59.67
2023-03-08T08:16:12.176Z,60.47
2023-03-08T08:18:39.580Z,58.55
2023-03-08T08:21:12.200Z,58.64
2023-03-08T08:23:40.105Z,58.57
2023-03-08T08:26:19.015Z,57.64
2023-03-08T08:28:50.395Z,57.64
2023-03-08T08:31:21.370Z,57.92
2023-03-08T08:33:49.277Z,56.81
2023-03-08T08:36:18.929Z,57.38
2023-03-08T08:38:46.472Z,57.82
2023-03-08T08:41:15.627Z,58.27
2023-03-08T08:43:43.545Z,57.44
2023-03-08T08:46:10.744Z,58.36
2023-03-08T08:48:38.681Z,58.14
2023-03-08T08:51:07.006Z,57.67
2023-03-08T08:53:34.713Z,56.76
2023-03-08T08:56:26.558Z,57.00
2023-03-08T08:59:00.101Z,57.00
2023-03-08T09:01:30.419Z,56.86
2023-03-08T09:03:58.136Z,57.24
2023-03-08T09:06:26.692Z,57.16
2023-03-08T09:08:56.300Z,57.10
2023-03-08T09:11:25.915Z,57.41
2023-03-08T09:13:54.030Z,56.85
2023-03-08T09:16:27.252Z,57.42
2023-03-08T09:18:56.605Z,57.22
2023-03-08T09:21:24.346Z,57.53
2023-03-08T09:23:52.049Z,56.91
2023-03-08T09:26:19.162Z,57.08
2023-03-08T09:28:46.608Z,57.27
2023-03-08T09:31:18.751Z,57.26
2023-03-08T09:33:49.494Z,57.29
2023-03-08T09:36:16.788Z,56.73
2023-03-08T09:38:43.963Z,56.86
2023-03-08T09:41:42.693Z,56.81
2023-03-08T09:44:30.096Z,56.70
2023-03-08T09:47:07.467Z,56.01
2023-03-08T09:49:36.669Z,56.52
2023-03-08T09:52:13.166Z,56.52
2023-03-08T09:54:41.173Z,56.49
2023-03-08T09:57:17.329Z,56.09
2023-03-08T09:59:49.517Z,54.99
2023-03-08T10:02:44.296Z,54.98
2023-03-08T10:05:31.094Z,53.37
2023-03-08T10:08:16.648Z,53.80
2023-03-08T10:11:07.715Z,53.80
2023-03-08T10:13:37.666Z,53.10
2023-03-08T10:16:16.896Z,53.22
2023-03-08T10:18:57.561Z,52.29
2023-03-08T10:21:26.940Z,52.60
2023-03-08T10:24:10.106Z,52.54
2023-03-08T10:26:37.096Z,52.90
2023-03-08T10:29:04.461Z,52.51
2023-03-08T10:31:33.902Z,53.15
2023-03-08T10:34:21.843Z,53.06
2023-03-08T10:36:53.230Z,53.07
2023-03-08T10:39:21.484Z,53.20
2023-03-08T10:42:06.598Z,53.81
2023-03-08T10:44:42.808Z,54.52
2023-03-08T10:47:33.114Z,53.72
2023-03-08T10:50:21.069Z,54.19
2023-03-08T10:52:51.022Z,53.77
2023-03-08T10:55:21.512Z,53.23
2023-03-08T10:57:55.680Z,53.42
2023-03-08T11:00:37.369Z,53.56
2023-03-08T11:03:21.840Z,54.07
2023-03-08T11:05:53.514Z,53.49
2023-03-08T11:08:24.349Z,53.80
2023-03-08T11:11:02.681Z,54.73
2023-03-08T11:13:36.832Z,54.46
2023-03-08T11:16:43.952Z,53.84
2023-03-08T11:19:29.796Z,53.67
2023-03-08T11:22:30.477Z,53.61
2023-03-08T11:25:09.359Z,53.48
2023-03-08T11:28:10.050Z,53.05
2023-03-08T11:30:40.231Z,52.16
2023-03-08T11:33:25.651Z,53.01
2023-03-08T11:36:14.818Z,53.13
2023-03-08T11:38:43.124Z,52.93
2023-03-08T11:41:18.697Z,52.85
2023-03-08T11:44:11.363Z,53.27
2023-03-08T11:46:53.514Z,53.08
2023-03-08T11:49:47.560Z,53.24
2023-03-08T11:52:37.533Z,53.40
2023-03-08T11:55:23.136Z,53.69
2023-03-08T11:58:00.210Z,53.71
2023-03-08T12:00:34.207Z,53.58
2023-03-08T12:03:19.830Z,53.94
2023-03-08T12:06:22.779Z,53.28
2023-03-08T12:09:01.752Z,53.16
2023-03-08T12:11:43.391Z,52.92
2023-03-08T12:14:35.437Z,53.06
2023-03-08T12:17:12.249Z,53.37
2023-03-08T12:19:48.522Z,53.55
2023-03-08T12:22:44.812Z,54.51
2023-03-08T12:25:29.356Z,54.50
2023-03-08T12:28:23.894Z,54.45
2023-03-08T12:31:29.669Z,54.58
2023-03-08T12:33:59.536Z,55.45
2023-03-08T12:36:38.261Z,55.69
2023-03-08T12:39:07.857Z,55.81
2023-03-08T12:41:35.110Z,55.08
2023-03-08T12:44:25.022Z,55.13
2023-03-08T12:47:03.717Z,55.03
2023-03-08T12:49:38.605Z,55.24
2023-03-08T12:52:17.843Z,56.54
2023-03-08T12:54:59.845Z,56.37
2023-03-08T12:57:55.058Z,56.78
2023-03-08T13:00:27.044Z,55.67
2023-03-08T13:03:25.757Z,56.12
2023-03-08T13:05:52.969Z,57.25
2023-03-08T13:08:29.022Z,58.04
2023-03-08T13:10:55.965Z,57.62
2023-03-08T13:13:40.985Z,58.22
2023-03-08T13:16:20.073Z,58.56
2023-03-08T13:18:51.459Z,58.85
2023-03-08T13:21:35.561Z,58.50
2023-03-08T13:24:25.719Z,58.42
2023-03-08T13:27:38.815Z,58.65
2023-03-08T13:30:20.907Z,60.33
2023-03-08T13:32:50.140Z,58.76
2023-03-08T13:35:18.077Z,58.45
2023-03-08T13:37:56.743Z,60.41
2023-03-08T13:40:24.365Z,60.15
2023-03-08T13:42:57.489Z,60.34
2023-03-08T13:45:25.990Z,60.11
2023-03-08T13:47:55.728Z,60.32
2023-03-08T13:50:25.421Z,60.91
2023-03-08T13:52:52.838Z,61.05
2023-03-08T13:55:25.678Z,61.61
2023-03-08T13:57:54.214Z,60.65
2023-03-08T14:00:27.979Z,60.87
2023-03-08T14:02:55.661Z,60.84
2023-03-08T14:05:28.828Z,60.36
2023-03-08T14:08:03.689Z,60.57
2023-03-08T14:10:45.060Z,61.24
2023-03-08T14:13:28.892Z,61.47
2023-03-08T14:15:59.524Z,60.87
2023-03-08T14:18:41.797Z,61.79
2023-03-08T14:21:16.477Z,64.84
2023-03-08T14:23:49.284Z,63.03
2023-03-08T14:26:33.999Z,63.96
2023-03-08T14:29:22.102Z,63.35
2023-03-08T14:32:11.466Z,63.71
2023-03-08T14:34:39.927Z,64.49
2023-03-08T14:37:13.018Z,65.13
2023-03-08T14:39:44.354Z,64.41
2023-03-08T14:42:37.150Z,63.98
2023-03-08T14:45:18.489Z,64.12
2023-03-08T14:47:52.019Z,64.13
2023-03-08T14:50:24.138Z,65.07
2023-03-08T14:52:54.875Z,66.12
2023-03-08T14:55:30.880Z,66.87
2023-03-08T14:58:02.209Z,66.02
2023-03-08T15:00:31.417Z,65.90
2023-03-08T15:02:59.962Z,66.37
2023-03-08T15:05:29.910Z,65.75
2023-03-08T15:07:59.836Z,65.73
2023-03-08T15:10:33.696Z,66.49
2023-03-08T15:13:01.087Z,66.02
2023-03-08T15:15:28.310Z,65.69
2023-03-08T15:17:56.206Z,66.58
2023-03-08T15:20:23.528Z,67.71
2023-03-08T15:22:54.607Z,67.54
2023-03-08T15:25:50.196Z,69.63
2023-03-08T15:28:19.413Z,70.46
2023-03-08T15:30:47.470Z,67.97
2023-03-08T15:33:14.650Z,69.56
2023-03-08T15:35:42.126Z,71.45
2023-03-08T15:38:13.998Z,70.09
2023-03-08T15:40:42.260Z,70.05
2023-03-08T15:43:10.005Z,69.26
2023-03-08T15:45:37.889Z,69.74
2023-03-08T15:48:07.395Z,69.41
2023-03-08T15:50:35.165Z,71.88
2023-03-08T15:53:02.134Z,71.26
2023-03-08T15:55:31.492Z,72.96
2023-03-08T15:57:58.920Z,71.33
2023-03-08T16:00:26.761Z,72.23
2023-03-08T16:02:54.196Z,72.50
2023-03-08T16:05:23.508Z,71.84
2023-03-08T16:07:55.199Z,71.95
2023-03-08T16:10:22.207Z,72.52
2023-03-08T16:12:50.501Z,71.84
2023-03-08T16:15:17.485Z,72.73
2023-03-08T16:17:44.884Z,72.36
2023-03-08T16:20:13.964Z,72.89
2023-03-08T16:22:41.705Z,72.63
2023-03-08T16:25:10.281Z,72.77
2023-03-08T16:27:38.343Z,74.59
2023-03-08T16:30:06.235Z,73.02
2023-03-08T16:32:33.388Z,72.15
2023-03-08T16:35:01.138Z,73.12
2023-03-08T16:37:28.843Z,72.05
2023-03-08T16:39:59.219Z,71.50
2023-03-08T16:42:26.293Z,72.98
2023-03-08T16:44:54.640Z,72.07
2023-03-08T16:47:23.208Z,73.31
2023-03-08T16:49:50.450Z,73.26
2023-03-08T16:52:18.277Z,73.52
2023-03-08T16:54:45.676Z,73.52
2023-03-08T16:57:19.726Z,73.43
2023-03-08T16:59:48.039Z,73.63
2023-03-08T17:02:20.811Z,73.30
2023-03-08T17:04:49.775Z,73.29
2023-03-08T17:07:17.503Z,74.47
2023-03-08T17:09:45.549Z,74.70
2023-03-08T17:12:12.487Z,75.33
2023-03-08T17:14:40.104Z,74.82
2023-03-08T17:17:07.421Z,74.25
2023-03-08T17:19:34.407Z,74.36
2023-03-08T17:22:01.359Z,74.15
2023-03-08T17:24:30.647Z,74.64
2023-03-08T17:26:57.654Z,73.96
2023-03-08T17:29:25.022Z,74.54
2023-03-08T17:31:52.199Z,73.38
2023-03-08T17:34:23.319Z,73.91
2023-03-08T17:36:51.680Z,73.35
2023-03-08T17:39:19.257Z,74.19
2023-03-08T17:41:46.535Z,74.02
2023-03-08T17:44:14.414Z,73.83
2023-03-08T17:46:41.565Z,74.16
2023-03-08T17:49:08.608Z,74.74
2023-03-08T17:51:35.582Z,74.19
2023-03-08T17:54:03.316Z,73.95
2023-03-08T17:56:32.203Z,73.29
2023-03-08T17:59:00.930Z,73.76
2023-03-08T18:01:30.866Z,73.67
2023-03-08T18:03:58.455Z,73.24
2023-03-08T18:06:31.466Z,73.07
2023-03-08T18:08:59.460Z,73.05
2023-03-08T18:11:26.841Z,73.47
2023-03-08T18:13:54.741Z,73.59
2023-03-08T18:16:23.788Z,73.44
2023-03-08T18:18:52.823Z,73.56
2023-03-08T18:21:21.232Z,73.12
2023-03-08T18:23:48.560Z,73.07
2023-03-08T18:26:19.133Z,73.13
2023-03-08T18:28:46.734Z,73.26
2023-03-08T18:31:21.056Z,73.69
2023-03-08T18:33:48.048Z,74.15
2023-03-08T18:36:15.563Z,74.33
2023-03-08T18:38:43.464Z,74.45
2023-03-08T18:41:15.302Z,74.24
2023-03-08T18:43:42.534Z,74.09
2023-03-08T18:46:12.214Z,73.61
2023-03-08T18:48:39.797Z,73.73
2023-03-08T18:51:06.936Z,73.64
2023-03-08T18:53:34.617Z,73.53
2023-03-08T18:56:04.208Z,73.55
2023-03-08T18:58:31.993Z,73.83
2023-03-08T19:01:00.565Z,73.41
2023-03-08T19:03:28.557Z,73.30
2023-03-08T19:05:56.057Z,72.91
2023-03-08T19:08:23.244Z,73.02
2023-03-08T19:10:50.296Z,73.58
2023-03-08T19:13:17.414Z,73.08
2023-03-08T19:15:44.500Z,73.59
2023-03-08T19:18:11.582Z,73.62
2023-03-08T19:20:40.733Z,73.64
2023-03-08T19:23:09.434Z,73.63
2023-03-08T19:25:56.790Z,73.51
2023-03-08T19:28:23.953Z,73.88
2023-03-08T19:30:50.993Z,73.15
2023-03-08T19:33:30.414Z,73.47
2023-03-08T19:35:59.351Z,73.18
2023-03-08T19:38:26.413Z,72.68
2023-03-08T19:40:53.414Z,73.28
2023-03-08T19:43:20.441Z,72.63
2023-03-08T19:45:50.766Z,72.89
2023-03-08T19:48:17.852Z,72.33
2023-03-08T19:50:46.533Z,72.48
2023-03-08T19:53:13.680Z,72.07
2023-03-08T19:55:51.144Z,72.21
2023-03-08T19:58:19.457Z,72.56
2023-03-08T20:00:47.455Z,72.02
2023-03-08T20:03:16.756Z,71.94
2023-03-08T20:05:46.202Z,72.04
2023-03-08T20:08:14.549Z,71.36
2023-03-08T20:10:41.822Z,71.53
2023-03-08T20:13:08.922Z,71.86
2023-03-08T20:15:35.992Z,71.40
2023-03-08T20:18:03.241Z,71.04
2023-03-08T20:20:30.346Z,70.92
2023-03-08T20:22:57.376Z,70.58
2023-03-08T20:25:24.369Z,70.64
2023-03-08T20:27:51.441Z,70.44
2023-03-08T20:30:18.508Z,70.50
2023-03-08T20:32:45.670Z,69.99
2023-03-08T20:35:15.097Z,70.04
2023-03-08T20:37:42.462Z,69.47
2023-03-08T20:40:13.611Z,69.64
2023-03-08T20:42:40.630Z,69.41
2023-03-08T20:45:08.173Z,69.02
2023-03-08T20:47:35.515Z,68.45
2023-03-08T20:50:03.184Z,68.00
2023-03-08T20:52:30.260Z,67.36
2023-03-08T20:54:57.340Z,67.36
2023-03-08T20:57:24.342Z,67.08
2023-03-08T20:59:51.442Z,66.65
2023-03-08T21:02:18.594Z,66.47
2023-03-08T21:04:45.604Z,66.05
2023-03-08T21:07:12.686Z,65.72
2023-03-08T21:09:39.677Z,65.76
2023-03-08T21:12:08.054Z,65.75
2023-03-08T21:14:35.026Z,65.42
2023-03-08T21:17:02.052Z,65.25
2023-03-08T21:19:29.065Z,65.19
2023-03-08T21:21:56.061Z,65.32
2023-03-08T21:24:23.180Z,65.05
2023-03-08T21:26:52.120Z,64.40
2023-03-08T21:29:20.830Z,64.20
2023-03-08T21:31:53.066Z,64.11
2023-03-08T21:34:20.539Z,63.88
2023-03-08T21:36:47.937Z,64.08
2023-03-08T21:39:15.701Z,64.06
2023-03-08T21:41:45.503Z,63.70
2023-03-08T21:44:15.645Z,64.14
2023-03-08T21:46:43.328Z,64.11
2023-03-08T21:49:19.757Z,63.56
2023-03-08T21:51:46.753Z,63.68
2023-03-08T21:54:14.541Z,63.86
2023-03-08T21:56:41.608Z,63.46
2023-03-08T21:59:08.679Z,63.51
2023-03-08T22:01:35.827Z,63.04
2023-03-08T22:04:04.220Z,63.52
2023-03-08T22:06:31.406Z,63.18
2023-03-08T22:08:58.937Z,63.59
2023-03-08T22:11:26.770Z,63.30
2023-03-08T22:13:59.307Z,63.72
2023-03-08T22:16:28.316Z,63.73
2023-03-08T22:18:58.260Z,63.38
2023-03-08T22:21:25.560Z,63.05
2023-03-08T22:23:54.053Z,62.91
2023-03-08T22:26:22.249Z,62.84
2023-03-08T22:28:49.376Z,63.11
2023-03-08T22:31:19.036Z,62.94
2023-03-08T22:33:46.606Z,62.73
2023-03-08T22:36:15.755Z,62.86
2023-03-08T22:38:43.446Z,63.21
2023-03-08T22:41:23.045Z,62.90
2023-03-08T22:43:50.555Z,62.50
2023-03-08T22:46:20.919Z,62.92
2023-03-08T22:48:48.602Z,63.09
2023-03-08T22:51:17.443Z,62.54
2023-03-08T22:53:44.585Z,62.23
2023-03-08T22:56:24.457Z,62.63
2023-03-08T22:58:52.232Z,62.58
2023-03-08T23:01:21.954Z,63.16
2023-03-08T23:03:49.919Z,63.38
2023-03-08T23:06:18.175Z,63.06
2023-03-08T23:08:46.065Z,63.01
2023-03-08T23:11:13.434Z,63.52
2023-03-08T23:13:41.472Z,63.54
2023-03-08T23:16:09.215Z,63.22
2023-03-08T23:18:36.633Z,63.65
2023-03-08T23:21:06.061Z,63.50
2023-03-08T23:23:33.373Z,63.44
2023-03-08T23:26:00.422Z,63.71
2023-03-08T23:28:27.384Z,63.17
2023-03-08T23:30:54.365Z,62.90
2023-03-08T23:33:21.366Z,63.62
2023-03-08T23:35:49.789Z,63.70
2023-03-08T23:38:16.751Z,63.62
2023-03-08T23:40:43.893Z,63.45
2023-03-08T23:43:10.881Z,63.77
2023-03-08T23:45:40.346Z,64.05
2023-03-08T23:48:07.829Z,63.49
2023-03-08T23:50:34.872Z,63.61
2023-03-08T23:53:01.852Z,63.52
2023-03-08T23:55:28.854Z,63.51
2023-03-08T23:57:55.951Z,63.24
